createdAt,value
2023-03-11T00:00:37.000Z,9.77
2023-03-11T00:03:06.714Z,9.43
2023-03-11T00:05:36.870Z,10.40
2023-03-11T00:08:05.515Z,9.45
2023-03-11T00:10:35.701Z,7.85
2023-03-11T00:13:04.001Z,8.93
2023-03-11T00:15:31.962Z,8.48
2023-03-11T00:17:59.646Z,8.57
2023-03-11T00:20:36.045Z,6.68
2023-03-11T00:23:04.747Z,7.20
2023-03-11T00:25:34.211Z,7.97
2023-03-11T00:28:01.661Z,6.40
2023-03-11T00:30:29.014Z,6.75
2023-03-11T00:32:58.288Z,5.60
2023-03-11T00:35:28.845Z,6.93
2023-03-11T00:37:58.608Z,5.72
2023-03-11T00:40:29.351Z,6.22
2023-03-11T00:42:57.169Z,6.95
2023-03-11T00:45:25.108Z,5.97
2023-03-11T00:47:53.519Z,5.38
2023-03-11T00:50:26.827Z,5.70
2023-03-11T00:52:54.790Z,6.47
2023-03-11T00:55:30.811Z,6.60
2023-03-11T00:58:01.666Z,4.63
2023-03-11T01:00:35.300Z,5.32
2023-03-11T01:03:03.707Z,5.28
2023-03-11T01:05:33.113Z,5.45
2023-03-11T01:08:02.756Z,4.85
2023-03-11T01:10:31.746Z,4.85
2023-03-11T01:12:59.224Z,4.88
2023-03-11T01:15:34.402Z,4.68
2023-03-11T01:18:01.982Z,3.40
2023-03-11T01:20:29.899Z,3.90
2023-03-11T01:22:57.220Z,4.05
2023-03-11T01:25:24.998Z,3.97
2023-03-11T01:27:52.290Z,4.05
2023-03-11T01:30:25.000Z,4.03
2023-03-11T01:32:53.515Z,4.65
2023-03-11T01:35:23.200Z,3.97
2023-03-11T01:37:50.682Z,4.85
2023-03-11T01:40:31.988Z,4.25
2023-03-11T01:43:04.700Z,4.40
2023-03-11T01:45:50.447Z,3.30
2023-03-11T01:48:20.574Z,4.15
2023-03-11T01:50:50.807Z,3.80
2023-03-11T01:53:19.243Z,4.15
2023-03-11T01:55:48.607Z,4.53
2023-03-11T01:58:24.602Z,3.70
2023-03-11T02:00:52.529Z,4.45
2023-03-11T02:03:27.705Z,3.78
2023-03-11T02:05:56.922Z,4.47
2023-03-11T02:08:24.279Z,3.38
2023-03-11T02:10:53.557Z,5.00
2023-03-11T02:13:21.429Z,3.22
2023-03-11T02:15:49.026Z,3.42
2023-03-11T02:18:20.375Z,3.08
2023-03-11T02:21:13.150Z,2.75
2023-03-11T02:23:45.934Z,3.80
2023-03-11T02:26:19.738Z,2.72
2023-03-11T02:28:49.074Z,3.50
2023-03-11T02:31:17.058Z,2.78
2023-03-11T02:33:46.700Z,3.53
2023-03-11T02:36:34.508Z,3.13
2023-03-11T02:39:03.076Z,3.35
2023-03-11T02:41:33.253Z,3.40
2023-03-11T02:44:01.745Z,3.10
2023-03-11T02:46:31.339Z,2.88
2023-03-11T02:49:00.557Z,3.38
2023-03-11T02:51:27.801Z,3.22
2023-03-11T02:53:59.655Z,3.13
2023-03-11T02:56:28.876Z,3.17
2023-03-11T02:58:56.510Z,2.75
2023-03-11T03:01:23.858Z,2.70
2023-03-11T03:03:51.466Z,3.97
2023-03-11T03:06:19.141Z,2.75
2023-03-11T03:08:46.465Z,2.92
2023-03-11T03:11:14.314Z,2.95
2023-03-11T03:13:41.653Z,3.50
2023-03-11T03:16:09.006Z,3.20
2023-03-11T03:18:36.392Z,3.33
2023-03-11T03:21:03.825Z,3.38
2023-03-11T03:23:37.716Z,3.17
2023-03-11T03:26:06.273Z,2.53
2023-03-11T03:28:36.799Z,2.47
2023-03-11T03:31:06.140Z,2.50
2023-03-11T03:33:33.452Z,2.83
2023-03-11T03:36:01.615Z,2.35
2023-03-11T03:38:36.968Z,2.88
2023-03-11T03:41:04.537Z,3.80
2023-03-11T03:43:33.830Z,3.15
2023-03-11T03:46:04.519Z,2.80
2023-03-11T03:48:38.882Z,2.65
2023-03-11T03:51:10.149Z,3.53
2023-03-11T03:56:12.972Z,2.42
2023-03-11T03:58:40.214Z,2.55
2023-03-11T04:01:08.758Z,2.58
2023-03-11T04:03:38.258Z,3.45
2023-03-11T04:06:23.698Z,3.45
2023-03-11T04:08:56.851Z,2.97
2023-03-11T04:11:29.038Z,2.40
2023-03-11T04:13:56.856Z,2.20
2023-03-11T04:16:24.858Z,2.08
2023-03-11T04:18:58.283Z,2.00
2023-03-11T04:21:25.579Z,2.10
2023-03-11T04:23:54.331Z,4.03
2023-03-11T04:26:28.494Z,3.45
2023-03-11T04:28:55.884Z,2.63
2023-03-11T04:31:24.729Z,3.33
2023-03-11T04:33:52.560Z,3.75
2023-03-11T04:36:20.071Z,3.05
2023-03-11T04:38:47.375Z,3.40
2023-03-11T04:41:15.340Z,3.35
2023-03-11T04:43:44.763Z,2.90
2023-03-11T04:46:12.221Z,2.97
2023-03-11T04:48:41.565Z,2.95
2023-03-11T04:51:09.053Z,3.53
2023-03-11T04:53:36.551Z,3.38
2023-03-11T04:56:04.767Z,3.25
2023-03-11T04:58:32.297Z,2.78
2023-03-11T05:00:59.571Z,3.22
2023-03-11T05:03:26.935Z,3.60
2023-03-11T05:05:56.811Z,3.90
2023-03-11T05:08:25.990Z,2.92
2023-03-11T05:10:53.599Z,3.15
2023-03-11T05:13:22.176Z,2.80
2023-03-11T05:15:51.478Z,3.80
2023-03-11T05:18:18.710Z,3.08
2023-03-11T05:20:47.264Z,3.20
2023-03-11T05:23:15.595Z,2.60
2023-03-11T05:25:42.964Z,4.18
2023-03-11T05:28:10.701Z,2.65
2023-03-11T05:30:42.630Z,3.20
2023-03-11T05:33:09.943Z,3.92
2023-03-11T05:35:37.463Z,4.15
2023-03-11T05:38:04.876Z,3.10
2023-03-11T05:40:33.112Z,3.17
2023-03-11T05:43:00.482Z,3.53
2023-03-11T05:45:30.730Z,3.35
2023-03-11T05:48:00.703Z,3.08
2023-03-11T05:50:28.032Z,3.25
2023-03-11T05:52:55.689Z,3.45
2023-03-11T05:55:23.478Z,2.88
2023-03-11T05:57:52.467Z,3.03
2023-03-11T06:00:20.613Z,2.85
2023-03-11T06:02:51.427Z,3.38
2023-03-11T06:05:19.823Z,2.75
2023-03-11T06:07:49.137Z,3.38
2023-03-11T06:10:16.651Z,3.15
2023-03-11T06:12:43.926Z,3.63
2023-03-11T06:15:16.826Z,3.08
2023-03-11T06:17:44.108Z,2.58
2023-03-11T06:20:12.718Z,3.65
2023-03-11T06:22:40.774Z,3.67
2023-03-11T06:25:09.248Z,5.95
2023-03-11T06:27:37.905Z,6.35
2023-03-11T06:30:07.161Z,5.90
2023-03-11T06:32:40.945Z,6.22
2023-03-11T06:35:08.926Z,5.95
2023-03-11T06:37:37.201Z,4.65
2023-03-11T06:40:09.977Z,4.07
2023-03-11T06:42:37.442Z,4.43
2023-03-11T06:45:06.758Z,4.45
2023-03-11T06:47:34.472Z,4.68
2023-03-11T06:50:06.642Z,4.28
2023-03-11T06:52:34.435Z,4.75
2023-03-11T06:55:01.897Z,4.05
2023-03-11T06:57:30.974Z,4.22
2023-03-11T07:00:01.087Z,5.03
2023-03-11T07:02:30.131Z,3.45
2023-03-11T07:04:57.733Z,3.00
2023-03-11T07:07:25.063Z,4.20
2023-03-11T07:09:57.761Z,3.20
2023-03-11T07:12:25.485Z,3.97
2023-03-11T07:14:59.473Z,4.68
2023-03-11T07:17:28.191Z,3.97
2023-03-11T07:19:55.625Z,2.67
2023-03-11T07:22:22.831Z,3.70
2023-03-11T07:24:50.090Z,3.03
2023-03-11T07:27:17.744Z,4.07
2023-03-11T07:29:45.097Z,2.90
2023-03-11T07:32:12.426Z,3.83
2023-03-11T07:34:39.724Z,3.85
2023-03-11T07:37:06.916Z,3.13
2023-03-11T07:39:34.152Z,2.75
2023-03-11T07:42:01.352Z,3.42
2023-03-11T07:44:35.353Z,3.80
2023-03-11T07:47:04.443Z,3.20
2023-03-11T07:49:31.870Z,3.47
2023-03-11T07:51:59.540Z,3.42
2023-03-11T07:54:26.841Z,4.93
2023-03-11T07:56:54.125Z,3.78
2023-03-11T07:59:21.373Z,3.88
2023-03-11T08:01:48.755Z,4.80
2023-03-11T08:04:17.214Z,3.03
2023-03-11T08:06:47.631Z,3.42
2023-03-11T08:09:15.085Z,2.72
2023-03-11T08:11:42.458Z,2.88
2023-03-11T08:14:09.697Z,3.53
2023-03-11T08:16:39.670Z,2.38
2023-03-11T08:19:07.309Z,2.00
2023-03-11T08:21:35.107Z,2.03
2023-03-11T08:24:05.003Z,1.90
2023-03-11T08:26:33.429Z,2.53
2023-03-11T08:29:00.645Z,1.85
2023-03-11T08:31:31.425Z,2.45
2023-03-11T08:34:01.863Z,1.70
2023-03-11T08:36:30.305Z,1.50
2023-03-11T08:38:57.796Z,1.65
2023-03-11T08:41:25.468Z,1.73
2023-03-11T08:43:52.728Z,1.50
2023-03-11T08:46:25.031Z,2.15
2023-03-11T08:48:54.143Z,1.50
2023-03-11T08:51:22.504Z,1.58
2023-03-11T08:53:51.064Z,1.35
2023-03-11T08:56:18.903Z,1.25
2023-03-11T08:58:46.511Z,1.25
2023-03-11T09:01:14.306Z,0.90
2023-03-11T09:03:41.501Z,1.48
2023-03-11T09:06:12.167Z,1.52
2023-03-11T09:08:39.530Z,0.85
2023-03-11T09:11:07.236Z,0.75
2023-03-11T09:13:34.454Z,0.50
2023-03-11T09:16:06.249Z,0.70
2023-03-11T09:18:35.215Z,0.50
2023-03-11T09:21:05.748Z,0.70
2023-03-11T09:23:32.980Z,0.50
2023-03-11T09:26:00.159Z,0.50
2023-03-11T09:28:27.361Z,0.55
2023-03-11T09:30:54.666Z,0.45
2023-03-11T09:33:21.885Z,0.60
2023-03-11T09:35:49.340Z,0.70
2023-03-11T09:38:16.589Z,0.70
2023-03-11T09:40:58.160Z,0.60
2023-03-11T09:44:00.279Z,0.95
2023-03-11T09:46:36.128Z,0.85
2023-03-11T09:49:22.068Z,0.95
2023-03-11T09:52:14.277Z,0.55
2023-03-11T09:54:46.072Z,0.57
2023-03-11T09:57:18.758Z,0.52
2023-03-11T09:59:47.444Z,0.50
2023-03-11T10:02:20.478Z,0.38
2023-03-11T10:05:17.100Z,0.50
2023-03-11T10:07:49.938Z,0.47
2023-03-11T10:10:18.318Z,0.43
2023-03-11T10:12:57.299Z,0.40
2023-03-11T10:15:48.357Z,0.40
2023-03-11T10:18:27.589Z,0.40
2023-03-11T10:21:04.093Z,0.30
2023-03-11T10:23:40.275Z,0.40
2023-03-11T10:26:13.552Z,0.30
2023-03-11T10:28:52.002Z,0.50
2023-03-11T10:31:28.108Z,0.30
2023-03-11T10:34:00.349Z,0.50
2023-03-11T10:37:10.281Z,0.60
2023-03-11T10:39:38.555Z,1.25
2023-03-11T10:42:10.907Z,0.60
2023-03-11T10:44:40.137Z,0.57
2023-03-11T10:47:13.500Z,0.50
2023-03-11T10:49:40.713Z,0.50
2023-03-11T10:52:07.932Z,0.40
2023-03-11T10:54:39.718Z,0.50
2023-03-11T10:57:19.745Z,0.40
2023-03-11T10:59:52.872Z,0.40
2023-03-11T11:02:26.326Z,0.40
2023-03-11T11:05:18.131Z,0.43
2023-03-11T11:07:47.782Z,0.43
2023-03-11T11:10:15.200Z,0.90
2023-03-11T11:12:51.623Z,0.40
2023-03-11T11:15:25.069Z,0.68
2023-03-11T11:17:57.280Z,0.50
2023-03-11T11:20:26.640Z,0.73
2023-03-11T11:22:56.824Z,0.75
2023-03-11T11:25:34.356Z,0.50
2023-03-11T11:28:15.311Z,0.70
2023-03-11T11:30:58.439Z,1.02
2023-03-11T11:33:49.326Z,1.00
2023-03-11T11:36:18.047Z,0.60
2023-03-11T11:38:45.279Z,0.80
2023-03-11T11:41:20.884Z,0.50
2023-03-11T11:44:04.173Z,0.50
2023-03-11T11:46:34.326Z,0.82
2023-03-11T11:49:25.750Z,0.70
2023-03-11T11:52:09.693Z,0.60
2023-03-11T11:54:39.064Z,0.70
2023-03-11T11:57:15.362Z,0.60
2023-03-11T11:59:44.145Z,0.60
2023-03-11T12:02:53.789Z,0.50
2023-03-11T12:05:32.746Z,0.55
2023-03-11T12:08:47.412Z,1.25
2023-03-11T12:11:34.789Z,0.63
2023-03-11T12:14:07.837Z,0.50
2023-03-11T12:16:47.761Z,0.40
2023-03-11T12:19:42.520Z,0.70
2023-03-11T12:22:34.880Z,0.80
2023-03-11T12:25:15.539Z,0.38
2023-03-11T12:27:51.831Z,0.60
2023-03-11T12:30:43.986Z,0.60
2023-03-11T12:33:38.777Z,0.40
2023-03-11T12:36:10.329Z,0.50
2023-03-11T12:38:40.897Z,0.73
2023-03-11T12:41:14.199Z,0.50
2023-03-11T12:43:41.334Z,0.60
2023-03-11T12:46:19.217Z,0.35
2023-03-11T12:48:46.585Z,0.77
2023-03-11T12:51:34.350Z,0.45
2023-03-11T12:54:31.195Z,0.60
2023-03-11T12:57:27.520Z,0.45
2023-03-11T13:00:18.216Z,0.30
2023-03-11T13:02:51.279Z,0.60
2023-03-11T13:05:39.639Z,0.50
2023-03-11T13:08:19.665Z,0.32
2023-03-11T13:10:51.826Z,0.40
2023-03-11T13:13:35.194Z,0.40
2023-03-11T13:16:14.668Z,0.40
2023-03-11T13:18:43.831Z,0.40
2023-03-11T13:21:32.093Z,0.30
2023-03-11T13:24:27.541Z,0.35
2023-03-11T13:27:04.375Z,0.47
2023-03-11T13:29:59.456Z,0.43
2023-03-11T13:32:51.007Z,0.50
2023-03-11T13:35:42.408Z,0.40
2023-03-11T13:38:44.640Z,0.30
2023-03-11T13:41:23.807Z,0.38
2023-03-11T13:43:52.333Z,0.50
2023-03-11T13:46:38.491Z,0.60
2023-03-11T13:49:28.246Z,0.50
2023-03-11T13:51:57.510Z,0.30
2023-03-11T13:54:34.310Z,0.40
2023-03-11T13:57:03.280Z,0.30
2023-03-11T13:59:35.137Z,0.45
2023-03-11T14:02:08.177Z,0.80
2023-03-11T14:04:39.985Z,0.32
2023-03-11T14:07:15.270Z,0.35
2023-03-11T14:09:42.488Z,0.80
2023-03-11T14:12:11.032Z,0.30
2023-03-11T14:15:04.293Z,0.30
2023-03-11T14:17:31.601Z,0.22
2023-03-11T14:20:18.028Z,1.05
2023-03-11T14:22:51.214Z,0.40
2023-03-11T14:25:31.268Z,0.30
2023-03-11T14:28:01.924Z,0.38
2023-03-11T14:30:31.901Z,0.77
2023-03-11T14:33:20.634Z,0.43
2023-03-11T14:36:05.492Z,0.50
2023-03-11T14:41:02.741Z,0.43
2023-03-11T14:43:34.810Z,0.50
2023-03-11T14:46:03.481Z,0.38
2023-03-11T14:48:42.084Z,0.35
2023-03-11T14:51:18.751Z,0.60
2023-03-11T14:54:17.828Z,0.30
2023-03-11T14:56:51.323Z,0.40
2023-03-11T14:59:26.856Z,0.57
2023-03-11T15:01:56.292Z,0.50
2023-03-11T15:04:29.530Z,0.47
2023-03-11T15:06:57.124Z,0.40
2023-03-11T15:09:25.098Z,0.40
2023-03-11T15:11:58.286Z,0.43
2023-03-11T15:14:34.328Z,0.40
2023-03-11T15:17:34.888Z,0.52
2023-03-11T15:20:07.581Z,0.40
2023-03-11T15:22:43.850Z,0.50
2023-03-11T15:25:20.484Z,0.45
2023-03-11T15:27:47.679Z,0.50
2023-03-11T15:30:23.378Z,0.30
2023-03-11T15:32:51.942Z,0.43
2023-03-11T15:35:25.041Z,0.30
2023-03-11T15:38:13.719Z,0.40
2023-03-11T15:40:55.036Z,0.40
2023-03-11T15:43:32.868Z,0.50
2023-03-11T15:46:03.096Z,0.40
2023-03-11T15:48:31.400Z,0.47
2023-03-11T15:51:00.589Z,0.50
2023-03-11T15:53:30.153Z,0.45
2023-03-11T15:56:12.419Z,0.40
2023-03-11T15:58:39.723Z,0.63
2023-03-11T16:01:07.498Z,0.50
2023-03-11T16:03:34.725Z,0.40
2023-03-11T16:06:01.887Z,1.05
2023-03-11T16:08:29.092Z,0.45
2023-03-11T16:10:56.280Z,0.40
2023-03-11T16:13:23.453Z,0.52
2023-03-11T16:15:50.853Z,0.50
2023-03-11T16:18:18.161Z,0.50
2023-03-11T16:20:49.372Z,0.40
2023-03-11T16:23:36.182Z,0.60
2023-03-11T16:26:11.455Z,0.70
2023-03-11T16:28:38.936Z,0.50
2023-03-11T16:31:08.738Z,0.50
2023-03-11T16:33:37.081Z,0.38
2023-03-11T16:36:05.200Z,0.73
2023-03-11T16:38:42.838Z,0.90
2023-03-11T16:41:10.123Z,0.47
2023-03-11T16:43:37.366Z,0.43
2023-03-11T16:46:05.058Z,0.50
2023-03-11T16:48:32.378Z,0.60
2023-03-11T16:51:00.651Z,0.50
2023-03-11T16:53:28.198Z,0.50
2023-03-11T16:55:55.464Z,0.50
2023-03-11T16:58:24.032Z,0.80
2023-03-11T17:00:57.943Z,0.47
2023-03-11T17:03:27.575Z,0.43
2023-03-11T17:06:03.941Z,0.75
2023-03-11T17:08:32.058Z,0.50
2023-03-11T17:10:59.254Z,0.50
2023-03-11T17:13:26.509Z,0.40
2023-03-11T17:16:03.600Z,0.40
2023-03-11T17:18:30.924Z,0.40
2023-03-11T17:20:58.358Z,0.70
2023-03-11T17:23:25.678Z,0.50
2023-03-11T17:25:52.957Z,0.60
2023-03-11T17:28:20.138Z,0.60
2023-03-11T17:30:47.446Z,0.60
2023-03-11T17:33:14.643Z,0.50
2023-03-11T17:35:41.975Z,0.50
2023-03-11T17:38:09.273Z,0.50
2023-03-11T17:40:37.857Z,1.00
2023-03-11T17:43:05.232Z,0.47
2023-03-11T17:45:32.431Z,0.50
2023-03-11T17:47:59.608Z,0.60
2023-03-11T17:50:27.272Z,0.40
2023-03-11T17:52:56.998Z,0.40
2023-03-11T17:55:24.673Z,0.35
2023-03-11T17:57:52.596Z,0.40
2023-03-11T18:00:20.293Z,0.40
2023-03-11T18:02:47.670Z,0.70
2023-03-11T18:05:16.425Z,0.50
2023-03-11T18:07:45.459Z,0.50
2023-03-11T18:10:14.486Z,0.60
2023-03-11T18:12:46.362Z,0.50
2023-03-11T18:15:20.190Z,0.50
2023-03-11T18:17:47.838Z,0.50
2023-03-11T18:20:16.605Z,0.68
2023-03-11T18:22:46.627Z,0.60
2023-03-11T18:25:14.632Z,0.95
2023-03-11T18:27:41.977Z,0.60
2023-03-11T18:30:11.365Z,0.77
2023-03-11T18:32:38.601Z,0.98
2023-03-11T18:35:06.434Z,0.80
2023-03-11T18:37:34.029Z,0.55
2023-03-11T18:40:01.248Z,1.02
2023-03-11T18:42:28.509Z,0.70
2023-03-11T18:44:55.787Z,0.70
2023-03-11T18:47:23.085Z,0.60
2023-03-11T18:49:50.491Z,0.70
2023-03-11T18:52:17.715Z,1.10
2023-03-11T18:54:44.914Z,0.95
2023-03-11T18:57:12.307Z,1.10
2023-03-11T18:59:39.518Z,0.90
2023-03-11T19:02:07.021Z,1.17
2023-03-11T19:04:34.385Z,2.00
2023-03-11T19:07:02.319Z,1.10
2023-03-11T19:09:29.587Z,1.13
2023-03-11T19:11:56.932Z,0.80
2023-03-11T19:14:24.270Z,0.85
2023-03-11T19:16:51.627Z,0.70
2023-03-11T19:19:19.034Z,0.90
2023-03-11T19:21:47.776Z,0.70
2023-03-11T19:24:15.076Z,0.98
2023-03-11T19:26:45.686Z,1.00
2023-03-11T19:29:14.844Z,1.48
2023-03-11T19:31:43.819Z,0.95
2023-03-11T19:34:11.344Z,1.00
2023-03-11T19:36:39.569Z,1.27
2023-03-11T19:39:07.142Z,1.05
2023-03-11T19:41:34.762Z,1.00
2023-03-11T19:44:04.224Z,1.17
2023-03-11T19:46:42.307Z,1.02
2023-03-11T19:49:10.330Z,1.75
2023-03-11T19:51:49.259Z,0.90
2023-03-11T19:54:18.400Z,1.10
2023-03-11T19:56:46.156Z,1.08
2023-03-11T19:59:17.829Z,0.80
2023-03-11T20:01:45.361Z,1.67
2023-03-11T20:04:12.862Z,1.52
2023-03-11T20:06:40.124Z,0.90
2023-03-11T20:09:07.987Z,1.30
2023-03-11T20:11:39.752Z,1.30
2023-03-11T20:14:07.473Z,1.17
2023-03-11T20:16:34.889Z,1.27
2023-03-11T20:19:02.229Z,1.08
2023-03-11T20:21:29.582Z,1.90
2023-03-11T20:23:58.130Z,1.58
2023-03-11T20:26:26.764Z,1.10
2023-03-11T20:28:57.529Z,2.08
2023-03-11T20:31:26.954Z,2.80
2023-03-11T20:33:55.192Z,2.22
2023-03-11T20:36:25.657Z,1.95
2023-03-11T20:38:54.322Z,2.17
2023-03-11T20:41:23.511Z,2.00
2023-03-11T20:43:56.826Z,1.75
2023-03-11T20:46:24.993Z,3.30
2023-03-11T20:48:52.465Z,2.03
2023-03-11T20:51:20.839Z,1.50
2023-03-11T20:53:49.059Z,1.95
2023-03-11T20:56:19.345Z,1.83
2023-03-11T20:58:51.371Z,1.98
2023-03-11T21:01:23.241Z,1.60
2023-03-11T21:03:54.349Z,2.22
2023-03-11T21:06:27.984Z,2.03
2023-03-11T21:08:56.520Z,2.50
2023-03-11T21:11:24.776Z,2.20
2023-03-11T21:13:52.572Z,2.10
2023-03-11T21:16:20.487Z,2.30
2023-03-11T21:18:49.531Z,2.45
2023-03-11T21:21:20.265Z,1.75
2023-03-11T21:23:48.529Z,2.25
2023-03-11T21:26:17.310Z,2.08
2023-03-11T21:28:46.932Z,1.83
2023-03-11T21:31:17.061Z,2.45
2023-03-11T21:33:44.517Z,2.40
2023-03-11T21:36:13.227Z,2.03
2023-03-11T21:38:41.008Z,2.55
2023-03-11T21:41:14.282Z,2.20
2023-03-11T21:43:42.474Z,2.47
2023-03-11T21:46:12.735Z,2.42
2023-03-11T21:48:40.386Z,2.67
2023-03-11T21:51:08.158Z,2.33
2023-03-11T21:53:35.623Z,2.60
2023-03-11T21:56:05.965Z,2.22
2023-03-11T21:58:34.360Z,3.30
2023-03-11T22:01:04.334Z,2.63
2023-03-11T22:03:35.454Z,3.70
2023-03-11T22:06:09.315Z,3.25
2023-03-11T22:08:36.797Z,2.97
2023-03-11T22:11:08.602Z,4.43
2023-03-11T22:13:36.213Z,4.45
2023-03-11T22:16:07.294Z,4.75
2023-03-11T22:18:34.588Z,3.60
2023-03-11T22:21:02.237Z,3.65
2023-03-11T22:23:29.530Z,3.33
2023-03-11T22:25:56.779Z,3.92
2023-03-11T22:28:24.666Z,3.25
2023-03-11T22:30:52.099Z,2.92
2023-03-11T22:33:20.472Z,3.33
2023-03-11T22:35:55.995Z,5.35
2023-03-11T22:38:23.297Z,4.85
2023-03-11T22:40:50.568Z,3.45
2023-03-11T22:43:17.884Z,5.18
2023-03-11T22:45:46.050Z,4.50
2023-03-11T22:48:13.881Z,5.03
2023-03-11T22:50:42.663Z,4.97
2023-03-11T22:53:10.087Z,4.65
2023-03-11T22:55:44.749Z,4.40
2023-03-11T22:58:12.712Z,3.90
2023-03-11T23:00:39.940Z,4.57
2023-03-11T23:03:07.352Z,4.22
2023-03-11T23:05:41.736Z,4.70
2023-03-11T23:10:39.135Z,2.72
2023-03-11T23:13:06.323Z,3.95
2023-03-11T23:15:33.509Z,5.35
2023-03-11T23:18:00.781Z,3.78
2023-03-11T23:20:28.120Z,5.20
2023-03-11T23:22:55.270Z,3.97
2023-03-11T23:25:22.589Z,4.50
2023-03-11T23:27:49.905Z,3.72
2023-03-11T23:30:17.521Z,2.80
2023-03-11T23:32:45.138Z,4.18
2023-03-11T23:35:13.316Z,3.08
2023-03-11T23:37:40.567Z,3.05
2023-03-11T23:40:09.594Z,2.50
2023-03-11T23:42:36.812Z,3.00
2023-03-11T23:45:05.766Z,3.22
2023-03-11T23:47:33.084Z,2.28
2023-03-11T23:50:00.318Z,2.10
2023-03-11T23:52:27.548Z,2.75
2023-03-11T23:54:55.639Z,1.73
2023-03-11T23:57:22.949Z,1.60
2023-03-11T23:59:50.117Z,1.80
